Main page
METAR-TAF:

METAR-TAF

Airports :

Nouakchott–Oumtounsy International Airport

Nouakchott, Mauritania

latitude: 18-18-36N, longitude: 015-58-11W, elevation: 3 m

Current weather observation

The report was made 42 minutes ago, at 02:30 UTC
Wind 11 kt from the North
Temperature 18°C
Humidity 45%
Pressure 1014 hPa
Visibility 10 km or more
no clouds below 1500 m and no cumulonimbus

METAR: GQNO 220230Z 01011KT CAVOK 18/06 Q1014 NOSIG

Time: 03:12 (03:12 UTC)

Forecast

The report was made 4 hours and 12 minutes ago, at 23:00 UTC
Forecast valid from 22 at 00 UTC to 23 at 06 UTC
Wind 10 kt from the North
Visibility: 8000 m
Becoming
from 22 at 08 UTC to 22 at 10 UTC
Wind 10 kt from the East/Northeast
Becoming
from 22 at 16 UTC to 22 at 19 UTC
Wind 10 kt from the North/Northwest

TAF: GQNO 212300Z 2200/2306 35010KT 8000 NSC BECMG 2208/2210 06010KT BECMG 2216/2219 34010KT

Weather observations and forecasts of more than 4000 airports (METAR and TAF reports).

The available stations are represented by yellow and red dots on the map.

Hover mouse over dot to see the name of the station.

Then click to see weather observations and forecasts.

To change the map : click on the green buttons with a black cross to zoom in, on the green button with a dash to zoom out, or on the green arrows for adjacent maps.


METAR-TAF: